sensor_id;sensor_type;location;lat;lon;timestamp;P1;P2;P0
49343;PMS5003;35210;41.606;-87.602;2023-11-18T00:00:09;0.00;0.00;0.00
49343;PMS5003;35210;41.606;-87.602;2023-11-18T00:02:39;0.00;0.00;0.00
49343;PMS5003;35210;41.606;-87.602;2023-11-18T00:05:08;1.00;1.00;1.00
49343;PMS5003;35210;41.606;-87.602;2023-11-18T00:07:36;1.00;0.00;0.00
49343;PMS5003;35210;41.606;-87.602;2023-11-18T00:10:04;1.00;1.00;1.00
49343;PMS5003;35210;41.606;-87.602;2023-11-18T00:12:34;1.00;1.00;0.40
49343;PMS5003;35210;41.606;-87.602;2023-11-18T00:15:02;0.00;0.00;0.00
49343;PMS5003;35210;41.606;-87.602;2023-11-18T00:17:33;0.00;0.00;0.00
49343;PMS5003;35210;41.606;-87.602;2023-11-18T00:20:01;1.00;1.00;1.00
49343;PMS5003;35210;41.606;-87.602;2023-11-18T00:22:35;3.00;1.00;1.00
49343;PMS5003;35210;41.606;-87.602;2023-11-18T00:25:04;2.60;1.40;1.00
49343;PMS5003;35210;41.606;-87.602;2023-11-18T00:27:33;1.00;1.00;1.00
49343;PMS5003;35210;41.606;-87.602;2023-11-18T00:30:02;1.00;1.00;1.00
49343;PMS5003;35210;41.606;-87.602;2023-11-18T00:32:35;0.00;0.00;0.00
49343;PMS5003;35210;41.606;-87.602;2023-11-18T00:35:04;1.00;1.00;0.60
49343;PMS5003;35210;41.606;-87.602;2023-11-18T00:37:34;1.00;1.00;0.80
49343;PMS5003;35210;41.606;-87.602;2023-11-18T00:40:02;0.20;0.20;0.00
49343;PMS5003;35210;41.606;-87.602;2023-11-18T00:42:32;1.00;1.00;1.00
49343;PMS5003;35210;41.606;-87.602;2023-11-18T00:45:00;0.00;0.00;0.00
49343;PMS5003;35210;41.606;-87.602;2023-11-18T00:47:33;0.20;0.00;0.00
49343;PMS5003;35210;41.606;-87.602;2023-11-18T00:50:03;0.00;0.00;0.00
49343;PMS5003;35210;41.606;-87.602;2023-11-18T00:52:33;0.80;0.80;0.80
49343;PMS5003;35210;41.606;-87.602;2023-11-18T00:55:04;0.60;0.60;0.40
49343;PMS5003;35210;41.606;-87.602;2023-11-18T00:57:33;1.80;0.40;0.40
49343;PMS5003;35210;41.606;-87.602;2023-11-18T01:00:01;1.00;1.00;1.00
49343;PMS5003;35210;41.606;-87.602;2023-11-18T01:02:30;1.00;1.00;1.00
49343;PMS5003;35210;41.606;-87.602;2023-11-18T01:05:00;1.00;1.00;1.00
49343;PMS5003;35210;41.606;-87.602;2023-11-18T01:07:29;2.00;1.60;1.00
49343;PMS5003;35210;41.606;-87.602;2023-11-18T01:09:57;2.00;0.80;0.00
49343;PMS5003;35210;41.606;-87.602;2023-11-18T01:12:29;1.60;1.00;0.20
49343;PMS5003;35210;41.606;-87.602;2023-11-18T01:14:57;1.60;1.60;1.00
49343;PMS5003;35210;41.606;-87.602;2023-11-18T01:17:25;1.00;1.00;1.00
49343;PMS5003;35210;41.606;-87.602;2023-11-18T01:19:53;0.00;0.00;0.00
49343;PMS5003;35210;41.606;-87.602;2023-11-18T01:22:23;2.00;2.00;2.00
49343;PMS5003;35210;41.606;-87.602;2023-11-18T01:24:52;2.00;2.00;2.00
49343;PMS5003;35210;41.606;-87.602;2023-11-18T01:27:20;2.00;2.00;1.80
49343;PMS5003;35210;41.606;-87.602;2023-11-18T01:29:48;2.60;1.20;1.00
49343;PMS5003;35210;41.606;-87.602;2023-11-18T01:32:16;2.00;1.00;1.00
49343;PMS5003;35210;41.606;-87.602;2023-11-18T01:34:44;4.00;4.00;2.00
49343;PMS5003;35210;41.606;-87.602;2023-11-18T01:37:15;2.60;1.60;1.60
49343;PMS5003;35210;41.606;-87.602;2023-11-18T01:39:45;1.80;1.80;1.40
49343;PMS5003;35210;41.606;-87.602;2023-11-18T01:42:13;3.00;2.80;2.00
49343;PMS5003;35210;41.606;-87.602;2023-11-18T01:44:42;1.60;1.60;1.60
49343;PMS5003;35210;41.606;-87.602;2023-11-18T01:47:10;2.80;1.80;1.80
49343;PMS5003;35210;41.606;-87.602;2023-11-18T01:49:38;3.00;1.00;1.00
49343;PMS5003;35210;41.606;-87.602;2023-11-18T01:52:08;3.00;1.80;1.00
49343;PMS5003;35210;41.606;-87.602;2023-11-18T01:54:37;4.00;2.40;2.00
49343;PMS5003;35210;41.606;-87.602;2023-11-18T01:57:11;2.00;2.00;2.00
49343;PMS5003;35210;41.606;-87.602;2023-11-18T01:59:41;2.60;1.80;1.40
49343;PMS5003;35210;41.606;-87.602;2023-11-18T02:02:09;5.80;3.00;2.60
49343;PMS5003;35210;41.606;-87.602;2023-11-18T02:04:38;3.00;3.00;2.80
49343;PMS5003;35210;41.606;-87.602;2023-11-18T02:07:06;4.00;3.00;2.60
49343;PMS5003;35210;41.606;-87.602;2023-11-18T02:09:38;5.20;4.00;4.00
49343;PMS5003;35210;41.606;-87.602;2023-11-18T02:12:08;6.60;4.00;3.00
49343;PMS5003;35210;41.606;-87.602;2023-11-18T02:14:48;4.00;4.00;3.00
49343;PMS5003;35210;41.606;-87.602;2023-11-18T02:17:20;1.60;1.60;1.40
49343;PMS5003;35210;41.606;-87.602;2023-11-18T02:19:50;4.20;3.40;3.00
49343;PMS5003;35210;41.606;-87.602;2023-11-18T02:22:20;6.80;3.80;2.00
49343;PMS5003;35210;41.606;-87.602;2023-11-18T02:24:49;3.00;3.00;2.00
49343;PMS5003;35210;41.606;-87.602;2023-11-18T02:27:20;3.00;3.00;2.00
49343;PMS5003;35210;41.606;-87.602;2023-11-18T02:29:49;3.00;2.40;2.00
49343;PMS5003;35210;41.606;-87.602;2023-11-18T02:32:18;4.80;3.60;2.20
49343;PMS5003;35210;41.606;-87.602;2023-11-18T02:34:56;10.40;5.20;2.40
49343;PMS5003;35210;41.606;-87.602;2023-11-18T02:37:30;2.40;2.40;1.00
49343;PMS5003;35210;41.606;-87.602;2023-11-18T02:40:01;4.00;4.00;3.60
49343;PMS5003;35210;41.606;-87.602;2023-11-18T02:42:36;4.40;4.40;2.40
49343;PMS5003;35210;41.606;-87.602;2023-11-18T02:45:05;7.60;5.00;3.20
49343;PMS5003;35210;41.606;-87.602;2023-11-18T02:47:38;3.80;3.80;2.20
49343;PMS5003;35210;41.606;-87.602;2023-11-18T02:50:06;6.40;6.40;4.00
49343;PMS5003;35210;41.606;-87.602;2023-11-18T02:52:36;8.60;7.00;5.80
49343;PMS5003;35210;41.606;-87.602;2023-11-18T02:55:05;6.40;6.40;3.60
49343;PMS5003;35210;41.606;-87.602;2023-11-18T02:57:34;9.20;6.60;4.00
49343;PMS5003;35210;41.606;-87.602;2023-11-18T03:00:04;9.20;9.20;5.40
49343;PMS5003;35210;41.606;-87.602;2023-11-18T03:02:37;10.40;10.20;7.00
49343;PMS5003;35210;41.606;-87.602;2023-11-18T03:05:05;12.80;9.60;8.00
49343;PMS5003;35210;41.606;-87.602;2023-11-18T03:07:37;13.60;13.60;10.00
49343;PMS5003;35210;41.606;-87.602;2023-11-18T03:10:05;12.00;9.60;7.60
49343;PMS5003;35210;41.606;-87.602;2023-11-18T03:12:38;13.20;13.00;8.80
49343;PMS5003;35210;41.606;-87.602;2023-11-18T03:15:07;14.60;13.00;9.00
49343;PMS5003;35210;41.606;-87.602;2023-11-18T03:17:37;15.40;13.40;9.20
49343;PMS5003;35210;41.606;-87.602;2023-11-18T03:20:05;12.80;11.80;8.00
49343;PMS5003;35210;41.606;-87.602;2023-11-18T03:22:34;14.00;12.60;8.60
49343;PMS5003;35210;41.606;-87.602;2023-11-18T03:25:03;12.60;11.80;8.40
49343;PMS5003;35210;41.606;-87.602;2023-11-18T03:27:33;17.00;13.60;9.00
49343;PMS5003;35210;41.606;-87.602;2023-11-18T03:30:03;13.40;12.20;8.60
49343;PMS5003;35210;41.606;-87.602;2023-11-18T03:32:33;15.40;12.60;8.80
49343;PMS5003;35210;41.606;-87.602;2023-11-18T03:35:02;12.40;10.20;8.00
49343;PMS5003;35210;41.606;-87.602;2023-11-18T03:37:32;14.00;13.80;9.40
49343;PMS5003;35210;41.606;-87.602;2023-11-18T03:40:00;17.80;13.00;9.20
49343;PMS5003;35210;41.606;-87.602;2023-11-18T03:42:30;12.40;11.80;8.80
49343;PMS5003;35210;41.606;-87.602;2023-11-18T03:45:06;14.00;11.40;8.00
49343;PMS5003;35210;41.606;-87.602;2023-11-18T03:47:36;16.40;14.60;10.40
49343;PMS5003;35210;41.606;-87.602;2023-11-18T03:50:05;21.20;16.80;11.20
49343;PMS5003;35210;41.606;-87.602;2023-11-18T03:52:35;16.00;13.00;9.00
49343;PMS5003;35210;41.606;-87.602;2023-11-18T03:55:04;13.20;13.20;9.00
49343;PMS5003;35210;41.606;-87.602;2023-11-18T03:57:33;10.40;9.00;8.60
49343;PMS5003;35210;41.606;-87.602;2023-11-18T04:00:01;14.00;12.20;8.00
49343;PMS5003;35210;41.606;-87.602;2023-11-18T04:02:32;15.80;13.80;9.40
49343;PMS5003;35210;41.606;-87.602;2023-11-18T04:05:01;15.40;13.00;10.40
49343;PMS5003;35210;41.606;-87.602;2023-11-18T04:07:31;16.80;13.60;9.80
49343;PMS5003;35210;41.606;-87.602;2023-11-18T04:09:59;14.20;12.40;9.80
49343;PMS5003;35210;41.606;-87.602;2023-11-18T04:12:28;19.60;17.40;12.00
49343;PMS5003;35210;41.606;-87.602;2023-11-18T04:14:56;14.00;13.60;9.20
49343;PMS5003;35210;41.606;-87.602;2023-11-18T04:17:28;9.60;9.00;7.60
49343;PMS5003;35210;41.606;-87.602;2023-11-18T04:19:58;18.60;14.00;9.00
49343;PMS5003;35210;41.606;-87.602;2023-11-18T04:22:29;13.40;12.40;8.00
49343;PMS5003;35210;41.606;-87.602;2023-11-18T04:25:04;16.00;14.20;9.00
49343;PMS5003;35210;41.606;-87.602;2023-11-18T04:27:33;14.40;13.00;8.40
49343;PMS5003;35210;41.606;-87.602;2023-11-18T04:30:02;19.60;14.40;9.60
49343;PMS5003;35210;41.606;-87.602;2023-11-18T04:32:34;20.80;17.00;12.00
49343;PMS5003;35210;41.606;-87.602;2023-11-18T04:35:05;19.40;16.20;12.00
49343;PMS5003;35210;41.606;-87.602;2023-11-18T04:37:35;23.40;18.20;11.80
49343;PMS5003;35210;41.606;-87.602;2023-11-18T04:40:04;16.20;13.40;9.80
49343;PMS5003;35210;41.606;-87.602;2023-11-18T04:42:38;16.00;14.00;9.40
49343;PMS5003;35210;41.606;-87.602;2023-11-18T04:45:06;26.20;20.00;12.00
49343;PMS5003;35210;41.606;-87.602;2023-11-18T04:47:37;18.40;16.00;9.80
49343;PMS5003;35210;41.606;-87.602;2023-11-18T04:50:07;13.80;11.80;10.40
49343;PMS5003;35210;41.606;-87.602;2023-11-18T04:52:36;15.20;15.20;9.20
49343;PMS5003;35210;41.606;-87.602;2023-11-18T04:55:04;18.20;15.00;11.00
49343;PMS5003;35210;41.606;-87.602;2023-11-18T04:57:34;23.40;17.00;9.20
49343;PMS5003;35210;41.606;-87.602;2023-11-18T05:00:05;19.20;13.00;8.60
49343;PMS5003;35210;41.606;-87.602;2023-11-18T05:02:37;15.60;11.60;6.80
49343;PMS5003;35210;41.606;-87.602;2023-11-18T05:05:07;16.40;14.00;9.00
49343;PMS5003;35210;41.606;-87.602;2023-11-18T05:07:35;12.80;11.00;6.00
49343;PMS5003;35210;41.606;-87.602;2023-11-18T05:10:04;16.80;14.20;10.40
49343;PMS5003;35210;41.606;-87.602;2023-11-18T05:12:33;19.80;17.40;11.00
49343;PMS5003;35210;41.606;-87.602;2023-11-18T05:15:02;17.00;14.60;11.40
49343;PMS5003;35210;41.606;-87.602;2023-11-18T05:17:33;20.80;16.00;10.00
49343;PMS5003;35210;41.606;-87.602;2023-11-18T05:20:01;19.00;15.80;9.40
49343;PMS5003;35210;41.606;-87.602;2023-11-18T05:22:35;18.20;18.00;12.20
49343;PMS5003;35210;41.606;-87.602;2023-11-18T05:25:03;19.00;15.60;10.60
49343;PMS5003;35210;41.606;-87.602;2023-11-18T05:27:33;16.40;13.40;11.20
49343;PMS5003;35210;41.606;-87.602;2023-11-18T05:30:01;16.60;15.60;11.20
49343;PMS5003;35210;41.606;-87.602;2023-11-18T05:32:30;27.60;18.20;12.40
49343;PMS5003;35210;41.606;-87.602;2023-11-18T05:34:59;16.60;14.60;11.00
49343;PMS5003;35210;41.606;-87.602;2023-11-18T05:37:27;21.20;15.40;10.40
49343;PMS5003;35210;41.606;-87.602;2023-11-18T05:39:56;21.00;18.00;11.20
49343;PMS5003;35210;41.606;-87.602;2023-11-18T05:42:31;15.40;15.40;10.60
49343;PMS5003;35210;41.606;-87.602;2023-11-18T05:45:06;17.00;13.00;10.00
49343;PMS5003;35210;41.606;-87.602;2023-11-18T05:47:42;16.00;13.60;9.20
49343;PMS5003;35210;41.606;-87.602;2023-11-18T05:50:11;21.20;17.60;11.00
49343;PMS5003;35210;41.606;-87.602;2023-11-18T05:52:40;18.00;16.40;11.20
49343;PMS5003;35210;41.606;-87.602;2023-11-18T05:55:10;18.40;13.40;10.80
49343;PMS5003;35210;41.606;-87.602;2023-11-18T05:57:38;12.00;11.20;7.80
49343;PMS5003;35210;41.606;-87.602;2023-11-18T06:00:06;17.40;15.40;11.40
49343;PMS5003;35210;41.606;-87.602;2023-11-18T06:02:41;16.20;13.80;9.80
49343;PMS5003;35210;41.606;-87.602;2023-11-18T06:05:09;19.60;16.40;11.60
49343;PMS5003;35210;41.606;-87.602;2023-11-18T06:07:38;20.20;16.20;12.00
49343;PMS5003;35210;41.606;-87.602;2023-11-18T06:10:10;18.20;16.80;11.80
49343;PMS5003;35210;41.606;-87.602;2023-11-18T06:12:38;25.20;21.20;14.20
49343;PMS5003;35210;41.606;-87.602;2023-11-18T06:15:07;11.40;10.00;7.20
49343;PMS5003;35210;41.606;-87.602;2023-11-18T06:17:39;22.60;15.80;11.20
49343;PMS5003;35210;41.606;-87.602;2023-11-18T06:20:11;19.20;13.00;11.00
49343;PMS5003;35210;41.606;-87.602;2023-11-18T06:22:40;18.00;13.40;10.20
49343;PMS5003;35210;41.606;-87.602;2023-11-18T06:25:10;16.80;15.60;11.00
49343;PMS5003;35210;41.606;-87.602;2023-11-18T06:27:38;16.20;14.20;10.00
49343;PMS5003;35210;41.606;-87.602;2023-11-18T06:30:07;16.60;12.00;8.80
49343;PMS5003;35210;41.606;-87.602;2023-11-18T06:32:37;13.20;12.80;10.00
49343;PMS5003;35210;41.606;-87.602;2023-11-18T06:35:06;19.40;15.40;10.60
49343;PMS5003;35210;41.606;-87.602;2023-11-18T06:37:34;22.60;17.00;11.20
49343;PMS5003;35210;41.606;-87.602;2023-11-18T06:40:03;12.60;9.20;6.40
49343;PMS5003;35210;41.606;-87.602;2023-11-18T06:42:43;17.40;15.80;10.00
49343;PMS5003;35210;41.606;-87.602;2023-11-18T06:45:12;18.80;16.60;11.60
49343;PMS5003;35210;41.606;-87.602;2023-11-18T06:47:40;16.80;15.20;12.00
49343;PMS5003;35210;41.606;-87.602;2023-11-18T06:50:09;13.00;11.60;10.00
49343;PMS5003;35210;41.606;-87.602;2023-11-18T06:52:39;16.60;15.20;12.40
49343;PMS5003;35210;41.606;-87.602;2023-11-18T06:55:08;11.80;11.20;8.00
49343;PMS5003;35210;41.606;-87.602;2023-11-18T06:57:36;14.00;11.20;8.60
49343;PMS5003;35210;41.606;-87.602;2023-11-18T07:00:07;4.60;4.60;2.00
49343;PMS5003;35210;41.606;-87.602;2023-11-18T07:02:39;13.40;11.40;9.60
49343;PMS5003;35210;41.606;-87.602;2023-11-18T07:05:07;15.00;13.00;10.80
49343;PMS5003;35210;41.606;-87.602;2023-11-18T07:07:36;15.60;13.20;10.20
49343;PMS5003;35210;41.606;-87.602;2023-11-18T07:10:05;15.40;13.60;9.80
49343;PMS5003;35210;41.606;-87.602;2023-11-18T07:12:38;14.80;12.60;9.00
49343;PMS5003;35210;41.606;-87.602;2023-11-18T07:15:08;13.20;10.20;8.40
49343;PMS5003;35210;41.606;-87.602;2023-11-18T07:17:37;20.60;15.00;10.20
49343;PMS5003;35210;41.606;-87.602;2023-11-18T07:20:06;15.00;13.40;10.00
49343;PMS5003;35210;41.606;-87.602;2023-11-18T07:22:37;17.80;14.00;11.00
49343;PMS5003;35210;41.606;-87.602;2023-11-18T07:25:05;17.80;10.40;8.20
49343;PMS5003;35210;41.606;-87.602;2023-11-18T07:27:35;14.00;11.80;9.40
49343;PMS5003;35210;41.606;-87.602;2023-11-18T07:30:03;14.20;11.80;9.00
49343;PMS5003;35210;41.606;-87.602;2023-11-18T07:32:37;10.80;10.80;9.60
49343;PMS5003;35210;41.606;-87.602;2023-11-18T07:35:06;15.60;14.00;10.00
49343;PMS5003;35210;41.606;-87.602;2023-11-18T07:37:36;14.40;12.80;9.20
49343;PMS5003;35210;41.606;-87.602;2023-11-18T07:40:04;13.60;12.00;6.20
49343;PMS5003;35210;41.606;-87.602;2023-11-18T07:42:37;7.00;7.00;6.00
49343;PMS5003;35210;41.606;-87.602;2023-11-18T07:45:06;15.00;11.60;9.60
49343;PMS5003;35210;41.606;-87.602;2023-11-18T07:47:44;12.00;12.00;9.60
49343;PMS5003;35210;41.606;-87.602;2023-11-18T07:50:12;9.60;9.60;7.20
49343;PMS5003;35210;41.606;-87.602;2023-11-18T07:52:41;16.40;13.00;9.00
49343;PMS5003;35210;41.606;-87.602;2023-11-18T07:55:09;14.60;12.00;7.00
49343;PMS5003;35210;41.606;-87.602;2023-11-18T07:57:38;17.40;14.00;8.20
49343;PMS5003;35210;41.606;-87.602;2023-11-18T08:00:09;14.00;10.60;9.20
49343;PMS5003;35210;41.606;-87.602;2023-11-18T08:02:40;13.40;10.00;6.40
49343;PMS5003;35210;41.606;-87.602;2023-11-18T08:05:11;12.00;12.00;8.20
49343;PMS5003;35210;41.606;-87.602;2023-11-18T08:07:40;10.20;10.20;9.20
49343;PMS5003;35210;41.606;-87.602;2023-11-18T08:10:10;15.80;10.00;8.60
49343;PMS5003;35210;41.606;-87.602;2023-11-18T08:12:38;14.60;11.00;9.00
49343;PMS5003;35210;41.606;-87.602;2023-11-18T08:15:06;13.40;10.80;8.60
49343;PMS5003;35210;41.606;-87.602;2023-11-18T08:17:34;15.00;10.00;9.00
49343;PMS5003;35210;41.606;-87.602;2023-11-18T08:20:03;18.80;7.00;6.40
49343;PMS5003;35210;41.606;-87.602;2023-11-18T08:22:41;11.40;9.40;7.00
49343;PMS5003;35210;41.606;-87.602;2023-11-18T08:25:10;10.40;9.60;7.20
49343;PMS5003;35210;41.606;-87.602;2023-11-18T08:27:40;12.00;10.00;9.40
49343;PMS5003;35210;41.606;-87.602;2023-11-18T08:30:08;13.40;10.80;9.80
49343;PMS5003;35210;41.606;-87.602;2023-11-18T08:32:38;7.60;6.60;6.00
49343;PMS5003;35210;41.606;-87.602;2023-11-18T08:35:09;13.20;13.20;9.00
49343;PMS5003;35210;41.606;-87.602;2023-11-18T08:37:39;14.80;10.20;9.00
49343;PMS5003;35210;41.606;-87.602;2023-11-18T08:40:09;11.80;10.40;8.80
49343;PMS5003;35210;41.606;-87.602;2023-11-18T08:42:41;10.00;10.00;9.00
49343;PMS5003;35210;41.606;-87.602;2023-11-18T08:45:14;15.60;11.80;9.60
49343;PMS5003;35210;41.606;-87.602;2023-11-18T08:47:44;9.80;9.40;7.00
49343;PMS5003;35210;41.606;-87.602;2023-11-18T08:50:13;16.60;12.40;9.00
49343;PMS5003;35210;41.606;-87.602;2023-11-18T08:52:43;14.00;10.40;9.00
49343;PMS5003;35210;41.606;-87.602;2023-11-18T08:55:12;12.40;10.40;9.40
49343;PMS5003;35210;41.606;-87.602;2023-11-18T08:57:44;13.60;10.00;7.00
49343;PMS5003;35210;41.606;-87.602;2023-11-18T09:00:24;16.20;14.00;11.20
49343;PMS5003;35210;41.606;-87.602;2023-11-18T09:03:10;18.40;11.00;7.80
49343;PMS5003;35210;41.606;-87.602;2023-11-18T09:05:43;16.20;12.00;9.20
49343;PMS5003;35210;41.606;-87.602;2023-11-18T09:08:24;11.80;11.80;9.00
49343;PMS5003;35210;41.606;-87.602;2023-11-18T09:10:55;15.00;10.00;8.40
49343;PMS5003;35210;41.606;-87.602;2023-11-18T09:13:23;12.60;12.20;10.60
49343;PMS5003;35210;41.606;-87.602;2023-11-18T09:15:54;13.80;12.80;10.20
49343;PMS5003;35210;41.606;-87.602;2023-11-18T09:18:23;10.80;9.60;8.40
49343;PMS5003;35210;41.606;-87.602;2023-11-18T09:20:52;5.20;4.60;3.80
49343;PMS5003;35210;41.606;-87.602;2023-11-18T09:23:22;18.80;11.20;9.20
49343;PMS5003;35210;41.606;-87.602;2023-11-18T09:25:52;13.60;10.80;9.00
49343;PMS5003;35210;41.606;-87.602;2023-11-18T09:28:21;9.40;9.40;8.60
49343;PMS5003;35210;41.606;-87.602;2023-11-18T09:30:54;10.80;9.00;8.00
49343;PMS5003;35210;41.606;-87.602;2023-11-18T09:33:23;13.60;12.20;9.20
49343;PMS5003;35210;41.606;-87.602;2023-11-18T09:35:52;13.80;12.00;10.00
49343;PMS5003;35210;41.606;-87.602;2023-11-18T09:40:56;17.60;10.60;9.20
49343;PMS5003;35210;41.606;-87.602;2023-11-18T09:43:28;15.60;11.80;9.60
49343;PMS5003;35210;41.606;-87.602;2023-11-18T09:46:01;13.00;12.40;8.60
49343;PMS5003;35210;41.606;-87.602;2023-11-18T09:48:39;4.40;4.00;4.00
49343;PMS5003;35210;41.606;-87.602;2023-11-18T09:51:14;9.00;6.40;6.00
49343;PMS5003;35210;41.606;-87.602;2023-11-18T09:53:50;13.20;11.40;9.00
49343;PMS5003;35210;41.606;-87.602;2023-11-18T09:56:23;23.40;14.00;11.60
49343;PMS5003;35210;41.606;-87.602;2023-11-18T09:59:05;14.80;12.60;10.20
49343;PMS5003;35210;41.606;-87.602;2023-11-18T10:01:41;16.20;12.40;8.60
49343;PMS5003;35210;41.606;-87.602;2023-11-18T10:04:09;16.40;11.20;10.00
49343;PMS5003;35210;41.606;-87.602;2023-11-18T10:06:39;16.80;13.40;9.40
49343;PMS5003;35210;41.606;-87.602;2023-11-18T10:09:13;9.60;5.40;2.60
49343;PMS5003;35210;41.606;-87.602;2023-11-18T10:11:53;14.00;9.20;8.00
49343;PMS5003;35210;41.606;-87.602;2023-11-18T10:14:26;13.20;11.20;8.40
49343;PMS5003;35210;41.606;-87.602;2023-11-18T10:16:55;13.00;10.80;8.80
49343;PMS5003;35210;41.606;-87.602;2023-11-18T10:19:23;11.60;9.00;8.60
49343;PMS5003;35210;41.606;-87.602;2023-11-18T10:21:51;13.80;10.80;9.00
49343;PMS5003;35210;41.606;-87.602;2023-11-18T10:24:24;13.60;11.40;8.80
49343;PMS5003;35210;41.606;-87.602;2023-11-18T10:26:55;17.20;11.00;9.00
49343;PMS5003;35210;41.606;-87.602;2023-11-18T10:29:26;13.20;7.00;4.60
49343;PMS5003;35210;41.606;-87.602;2023-11-18T10:32:03;12.80;11.80;9.00
49343;PMS5003;35210;41.606;-87.602;2023-11-18T10:34:35;9.00;9.00;8.00
49343;PMS5003;35210;41.606;-87.602;2023-11-18T10:37:04;9.80;9.60;8.00
49343;PMS5003;35210;41.606;-87.602;2023-11-18T10:39:37;16.00;10.00;8.80
49343;PMS5003;35210;41.606;-87.602;2023-11-18T10:42:06;10.40;9.40;8.00
49343;PMS5003;35210;41.606;-87.602;2023-11-18T10:44:34;15.80;10.40;6.80
49343;PMS5003;35210;41.606;-87.602;2023-11-18T10:47:02;10.00;8.80;8.00
49343;PMS5003;35210;41.606;-87.602;2023-11-18T10:49:31;12.80;9.40;8.20
49343;PMS5003;35210;41.606;-87.602;2023-11-18T10:52:02;7.60;5.40;5.00
49343;PMS5003;35210;41.606;-87.602;2023-11-18T10:54:33;9.20;9.20;8.00
49343;PMS5003;35210;41.606;-87.602;2023-11-18T10:57:04;12.40;12.00;9.00
49343;PMS5003;35210;41.606;-87.602;2023-11-18T10:59:34;12.00;8.00;8.00
49343;PMS5003;35210;41.606;-87.602;2023-11-18T11:04:46;15.60;12.00;9.00
49343;PMS5003;35210;41.606;-87.602;2023-11-18T11:07:15;12.80;12.60;9.20
49343;PMS5003;35210;41.606;-87.602;2023-11-18T11:09:49;11.00;8.60;5.80
49343;PMS5003;35210;41.606;-87.602;2023-11-18T11:12:23;15.00;10.20;8.80
49343;PMS5003;35210;41.606;-87.602;2023-11-18T11:14:57;10.80;10.80;8.80
49343;PMS5003;35210;41.606;-87.602;2023-11-18T11:17:29;9.80;9.60;7.40
49343;PMS5003;35210;41.606;-87.602;2023-11-18T11:20:04;16.60;12.20;9.20
49343;PMS5003;35210;41.606;-87.602;2023-11-18T11:22:45;14.00;8.20;6.00
49343;PMS5003;35210;41.606;-87.602;2023-11-18T11:25:26;13.40;10.00;7.20
49343;PMS5003;35210;41.606;-87.602;2023-11-18T11:28:07;5.80;2.00;1.60
49343;PMS5003;35210;41.606;-87.602;2023-11-18T11:30:41;13.40;10.00;8.00
49343;PMS5003;35210;41.606;-87.602;2023-11-18T11:33:17;10.40;8.80;6.40
49343;PMS5003;35210;41.606;-87.602;2023-11-18T11:35:58;12.20;8.60;7.40
49343;PMS5003;35210;41.606;-87.602;2023-11-18T11:38:29;10.00;9.60;8.00
49343;PMS5003;35210;41.606;-87.602;2023-11-18T11:40:59;11.20;8.60;6.80
49343;PMS5003;35210;41.606;-87.602;2023-11-18T11:43:32;12.00;9.80;8.60
49343;PMS5003;35210;41.606;-87.602;2023-11-18T11:46:02;12.20;9.00;8.00
49343;PMS5003;35210;41.606;-87.602;2023-11-18T11:48:35;14.20;10.80;8.00
49343;PMS5003;35210;41.606;-87.602;2023-11-18T11:51:11;14.80;12.60;9.00
49343;PMS5003;35210;41.606;-87.602;2023-11-18T11:53:53;18.80;10.40;8.20
49343;PMS5003;35210;41.606;-87.602;2023-11-18T11:56:39;19.00;12.20;8.60
49343;PMS5003;35210;41.606;-87.602;2023-11-18T11:59:10;16.60;11.20;8.00
49343;PMS5003;35210;41.606;-87.602;2023-11-18T12:01:38;20.20;10.00;9.00
49343;PMS5003;35210;41.606;-87.602;2023-11-18T12:04:12;13.80;11.20;8.00
49343;PMS5003;35210;41.606;-87.602;2023-11-18T12:06:48;12.40;10.00;8.80
49343;PMS5003;35210;41.606;-87.602;2023-11-18T12:09:19;13.40;8.40;8.00
49343;PMS5003;35210;41.606;-87.602;2023-11-18T12:11:47;12.40;9.00;6.40
49343;PMS5003;35210;41.606;-87.602;2023-11-18T12:14:17;9.00;8.00;6.00
49343;PMS5003;35210;41.606;-87.602;2023-11-18T12:17:04;9.00;8.00;6.00
49343;PMS5003;35210;41.606;-87.602;2023-11-18T12:19:35;13.00;9.40;7.60
49343;PMS5003;35210;41.606;-87.602;2023-11-18T12:22:10;15.80;10.40;8.00
49343;PMS5003;35210;41.606;-87.602;2023-11-18T12:28:06;15.60;9.60;6.80
49343;PMS5003;35210;41.606;-87.602;2023-11-18T12:30:41;12.00;10.00;8.00
49343;PMS5003;35210;41.606;-87.602;2023-11-18T12:39:47;13.00;12.20;8.40
49343;PMS5003;35210;41.606;-87.602;2023-11-18T12:45:49;18.80;13.20;9.20
49343;PMS5003;35210;41.606;-87.602;2023-11-18T12:48:54;8.20;8.20;5.20
49343;PMS5003;35210;41.606;-87.602;2023-11-18T12:51:25;13.00;10.60;8.40
49343;PMS5003;35210;41.606;-87.602;2023-11-18T12:53:53;17.80;8.00;6.00
49343;PMS5003;35210;41.606;-87.602;2023-11-18T12:56:22;8.80;6.40;4.80
49343;PMS5003;35210;41.606;-87.602;2023-11-18T12:58:51;12.60;12.00;6.20
49343;PMS5003;35210;41.606;-87.602;2023-11-18T13:01:21;8.80;5.60;4.00
49343;PMS5003;35210;41.606;-87.602;2023-11-18T13:03:51;10.20;9.20;5.80
49343;PMS5003;35210;41.606;-87.602;2023-11-18T13:06:19;12.60;10.20;8.60
49343;PMS5003;35210;41.606;-87.602;2023-11-18T13:08:51;15.60;10.80;8.40
49343;PMS5003;35210;41.606;-87.602;2023-11-18T13:11:20;13.60;12.40;10.00
49343;PMS5003;35210;41.606;-87.602;2023-11-18T13:13:52;16.40;11.80;8.20
49343;PMS5003;35210;41.606;-87.602;2023-11-18T13:16:20;11.20;10.80;9.00
49343;PMS5003;35210;41.606;-87.602;2023-11-18T13:18:50;14.80;12.40;8.80
49343;PMS5003;35210;41.606;-87.602;2023-11-18T13:21:20;16.20;9.80;8.40
49343;PMS5003;35210;41.606;-87.602;2023-11-18T13:23:51;19.00;13.00;8.40
49343;PMS5003;35210;41.606;-87.602;2023-11-18T13:26:20;8.40;6.80;6.40
49343;PMS5003;35210;41.606;-87.602;2023-11-18T13:28:49;11.20;9.40;8.20
49343;PMS5003;35210;41.606;-87.602;2023-11-18T13:31:20;13.40;9.40;6.80
49343;PMS5003;35210;41.606;-87.602;2023-11-18T13:33:48;15.40;13.20;9.60
49343;PMS5003;35210;41.606;-87.602;2023-11-18T13:36:16;16.60;14.40;10.00
49343;PMS5003;35210;41.606;-87.602;2023-11-18T13:38:47;7.00;5.40;5.20
49343;PMS5003;35210;41.606;-87.602;2023-11-18T13:41:28;14.20;13.00;9.00
49343;PMS5003;35210;41.606;-87.602;2023-11-18T13:43:59;14.00;8.80;6.80
49343;PMS5003;35210;41.606;-87.602;2023-11-18T13:46:28;15.00;12.40;8.20
49343;PMS5003;35210;41.606;-87.602;2023-11-18T13:48:57;10.60;10.60;9.00
49343;PMS5003;35210;41.606;-87.602;2023-11-18T13:51:26;11.00;9.60;8.60
49343;PMS5003;35210;41.606;-87.602;2023-11-18T13:53:55;9.40;9.00;8.20
49343;PMS5003;35210;41.606;-87.602;2023-11-18T13:56:24;9.20;6.40;6.00
49343;PMS5003;35210;41.606;-87.602;2023-11-18T13:58:53;12.60;9.40;7.00
49343;PMS5003;35210;41.606;-87.602;2023-11-18T14:01:23;11.80;8.80;7.20
49343;PMS5003;35210;41.606;-87.602;2023-11-18T14:03:53;10.40;10.00;7.40
49343;PMS5003;35210;41.606;-87.602;2023-11-18T14:06:27;9.60;7.60;7.20
49343;PMS5003;35210;41.606;-87.602;2023-11-18T14:08:55;7.00;7.00;6.00
49343;PMS5003;35210;41.606;-87.602;2023-11-18T14:11:23;9.40;7.00;5.00
49343;PMS5003;35210;41.606;-87.602;2023-11-18T14:13:51;15.40;8.40;6.40
49343;PMS5003;35210;41.606;-87.602;2023-11-18T14:16:19;7.00;7.00;5.60
49343;PMS5003;35210;41.606;-87.602;2023-11-18T14:18:51;8.40;8.20;6.00